Terminal Aerodrome Forecast
Issued by NWS

Home | Current Version | Previous Version | Text Only | Print | Product List | Glossary On
Versions: 1 2 3 4 5 6 7 8 9 10 11 12 13 14 15 16 17 18 19
595
FTUS46 KMFR 202339
TAFLMT
TAF
KLMT 202339Z 2100/2124 30020G30KT P6SM -SHRA SCT030 BKN050 BKN070
     FM210600 30006KT P6SM VCSH SCT009 BKN012
     FM211200 00000KT P6SM BKN100
     FM212100 32009G16KT P6SM BKN100=

USA.gov is the U.S. government's official web portal to all federal, state and local government web resources and services.